Time;durP1;ratioP1;P1;durP2;ratioP2;P2;SDS_P1;SDS_P2;PMS_P1;PMS_P2;Temp;Humidity;BMP_temperature;BMP_pressure;BME280_temperature;BME280_humidity;BME280_pressure;Samples;Min_cycle;Max_cycle;Signal;HPM_P1;HPM_P2
2021/01/08 00:00:06;;;;;;;18.17;9.10;;;;;;;1.65;98.90;100098.86;648333;220;24798;-73
2021/01/08 00:02:33;;;;;;;14.10;8.40;;;;;;;1.72;98.84;100098.88;654322;216;24865;-73
2021/01/08 00:05:02;;;;;;;17.30;10.32;;;;;;;1.83;97.92;100094.36;647742;216;32562;-73
2021/01/08 00:07:32;;;;;;;15.33;9.27;;;;;;;1.62;98.39;100102.89;652803;217;24853;-73
2021/01/08 00:10:00;;;;;;;12.87;8.40;;;;;;;1.33;98.95;100095.64;651735;218;24784;-73
2021/01/08 00:12:30;;;;;;;13.40;7.47;;;;;;;1.20;100.00;100092.96;660989;217;24765;-73
2021/01/08 00:14:58;;;;;;;16.40;7.90;;;;;;;1.20;100.00;100104.48;649517;221;24811;-72
2021/01/08 00:17:26;;;;;;;15.15;9.40;;;;;;;1.25;100.00;100101.20;632232;221;32756;-73
2021/01/08 00:19:54;;;;;;;14.37;8.50;;;;;;;1.49;100.00;100098.95;654852;216;23636;-73
2021/01/08 00:22:23;;;;;;;12.90;8.00;;;;;;;1.75;99.69;100085.87;652915;216;24756;-72
2021/01/08 00:24:50;;;;;;;10.57;7.00;;;;;;;1.83;98.86;100086.67;638460;222;27039;-73
2021/01/08 00:27:18;;;;;;;8.70;6.43;;;;;;;1.89;97.96;100087.60;653746;217;24777;-73
2021/01/08 00:29:46;;;;;;;11.40;6.00;;;;;;;1.92;97.40;100084.84;651190;218;24965;-72
2021/01/08 00:32:13;;;;;;;12.73;7.80;;;;;;;2.24;96.09;100081.11;650104;217;32857;-72
2021/01/08 00:34:41;;;;;;;12.43;7.87;;;;;;;1.98;95.73;100083.20;646496;220;23654;-73
2021/01/08 00:37:10;;;;;;;14.20;7.83;;;;;;;2.12;96.02;100081.90;641248;221;32742;-73
2021/01/08 00:39:39;;;;;;;12.00;8.20;;;;;;;2.34;94.40;100073.67;648529;217;32877;-72
2021/01/08 00:42:06;;;;;;;12.40;8.30;;;;;;;2.32;93.82;100067.81;649808;217;32554;-73
2021/01/08 00:44:33;;;;;;;12.13;8.38;;;;;;;2.35;93.97;100074.86;645930;217;32642;-73
2021/01/08 00:47:02;;;;;;;11.73;8.23;;;;;;;2.49;94.17;100071.88;650163;217;32559;-73
2021/01/08 00:49:29;;;;;;;11.73;7.63;;;;;;;1.96;95.04;100081.17;654520;217;23694;-73
2021/01/08 00:51:57;;;;;;;10.60;6.70;;;;;;;1.94;95.86;100088.13;653764;216;24756;-73
2021/01/08 00:54:25;;;;;;;10.60;7.40;;;;;;;1.95;96.03;100079.52;650861;217;24804;-73
2021/01/08 00:56:53;;;;;;;10.27;6.10;;;;;;;1.98;96.00;100084.48;659036;216;24757;-73
2021/01/08 00:59:21;;;;;;;11.70;6.90;;;;;;;2.09;95.82;100085.45;654782;216;24765;-73
2021/01/08 01:01:49;;;;;;;13.00;6.20;;;;;;;2.04;96.05;100087.48;650768;220;24748;-73
2021/01/08 01:04:17;;;;;;;9.40;7.13;;;;;;;2.00;95.82;100080.08;658206;216;24759;-72
2021/01/08 01:06:45;;;;;;;12.13;6.90;;;;;;;2.01;95.78;100089.42;661179;216;24744;-72
2021/01/08 01:09:13;;;;;;;12.00;7.10;;;;;;;2.04;96.23;100087.95;655777;216;24757;-72
2021/01/08 01:11:41;;;;;;;11.73;7.50;;;;;;;1.83;96.85;100090.52;650382;216;25027;-72
2021/01/08 01:14:08;;;;;;;9.40;6.67;;;;;;;1.88;97.05;100088.06;650253;221;24746;-73
2021/01/08 01:16:36;;;;;;;10.40;6.67;;;;;;;1.80;97.28;100094.09;642393;221;31136;-73
2021/01/08 01:19:04;;;;;;;12.00;7.03;;;;;;;1.53;98.70;100096.56;660286;217;25044;-73
2021/01/08 01:21:32;;;;;;;14.05;8.73;;;;;;;1.56;99.64;100100.25;648096;217;32620;-73
2021/01/08 01:24:00;;;;;;;18.57;8.00;;;;;;;1.60;99.65;100103.45;653140;217;23641;-74
2021/01/08 01:26:28;;;;;;;16.73;8.53;;;;;;;1.82;99.24;100098.67;646663;222;27950;-73
2021/01/08 01:28:56;;;;;;;12.70;7.50;;;;;;;1.73;98.68;100097.95;653978;216;24765;-73
2021/01/08 01:31:24;;;;;;;14.93;8.50;;;;;;;1.60;99.74;100099.60;654971;217;24762;-73
2021/01/08 01:33:52;;;;;;;13.10;7.27;;;;;;;1.69;99.45;100097.75;657858;217;24779;-72
2021/01/08 01:36:20;;;;;;;12.63;7.63;;;;;;;1.45;99.62;100091.08;643968;222;25078;-72
2021/01/08 01:38:48;;;;;;;13.83;8.40;;;;;;;1.39;100.00;100098.66;660953;217;24773;-72
2021/01/08 01:41:15;;;;;;;12.67;7.63;;;;;;;1.25;100.00;100097.81;656384;217;24753;-72
2021/01/08 01:43:43;;;;;;;13.80;7.40;;;;;;;1.38;100.00;100097.01;651320;217;24848;-72
2021/01/08 01:46:13;;;;;;;15.23;7.60;;;;;;;1.44;100.00;100083.86;642163;222;24792;-73
2021/01/08 01:48:41;;;;;;;14.87;8.00;;;;;;;1.53;100.00;100092.72;643003;221;28049;-73
2021/01/08 01:51:09;;;;;;;15.10;8.30;;;;;;;1.52;100.00;100098.77;651652;217;25073;-72
2021/01/08 01:53:37;;;;;;;14.80;9.60;;;;;;;1.96;100.00;100087.58;640510;222;32742;-73
2021/01/08 01:56:05;;;;;;;16.70;9.17;;;;;;;1.85;99.59;100089.99;641747;222;23683;-73
2021/01/08 01:58:33;;;;;;;13.57;7.70;;;;;;;1.76;99.51;100094.75;639594;221;24843;-72
2021/01/08 02:01:01;;;;;;;14.60;8.10;;;;;;;1.91;99.11;100091.71;652404;217;24775;-72
2021/01/08 02:03:31;;;;;;;15.57;8.03;;;;;;;1.85;98.90;100095.13;654828;217;24859;-73
2021/01/08 02:05:59;;;;;;;12.60;7.10;;;;;;;1.74;99.58;100094.48;655187;216;24772;-72
2021/01/08 02:08:27;;;;;;;12.33;7.90;;;;;;;1.99;98.93;100092.55;639022;222;24802;-72
2021/01/08 02:10:55;;;;;;;16.70;8.53;;;;;;;1.82;99.28;100097.39;653626;218;25861;-73
2021/01/08 02:13:24;;;;;;;14.80;8.10;;;;;;;2.00;98.89;100095.47;656248;216;24752;-73
2021/01/08 02:15:52;;;;;;;12.03;7.27;;;;;;;2.06;98.83;100089.95;644684;221;24811;-73
2021/01/08 02:18:20;;;;;;;13.43;7.23;;;;;;;2.04;98.27;100089.23;653616;216;24773;-73
2021/01/08 02:20:47;;;;;;;12.27;7.63;;;;;;;1.79;99.54;100089.42;641276;221;25905;-73
2021/01/08 02:23:16;;;;;;;13.97;8.70;;;;;;;1.87;99.38;100092.83;648330;221;24810;-72
2021/01/08 02:25:44;;;;;;;17.30;9.83;;;;;;;1.50;100.00;100098.03;654438;216;24805;-73
2021/01/08 02:28:20;;;;;;;16.50;9.20;;;;;;;1.49;100.00;100095.10;655521;217;24760;-73
2021/01/08 02:30:48;;;;;;;15.77;9.50;;;;;;;1.26;100.00;100098.17;654932;216;25203;-72
2021/01/08 02:33:16;;;;;;;17.20;9.70;;;;;;;1.16;100.00;100097.45;651181;217;24772;-73
2021/01/08 02:35:44;;;;;;;18.33;10.27;;;;;;;1.13;100.00;100104.48;655498;218;24765;-74
2021/01/08 02:38:13;;;;;;;16.90;9.97;;;;;;;1.10;100.00;100102.91;639702;221;24816;-75
2021/01/08 02:40:40;;;;;;;14.70;9.37;;;;;;;1.09;100.00;100094.85;654533;217;24798;-74
2021/01/08 02:43:08;;;;;;;23.65;12.58;;;;;;;1.13;100.00;100095.06;637624;221;33475;-75
2021/01/08 02:45:36;;;;;;;24.27;11.57;;;;;;;1.13;100.00;100084.00;656020;217;23887;-75
2021/01/08 02:48:05;;;;;;;21.93;11.40;;;;;;;1.24;100.00;100089.30;653587;218;24808;-74
2021/01/08 02:50:33;;;;;;;19.70;10.50;;;;;;;1.46;100.00;100080.73;644019;221;24801;-75
2021/01/08 02:53:01;;;;;;;19.17;10.40;;;;;;;1.29;100.00;100084.75;651500;218;24771;-74
2021/01/08 02:55:29;;;;;;;18.57;10.67;;;;;;;1.23;100.00;100083.81;649224;221;24745;-74
2021/01/08 02:57:59;;;;;;;18.07;10.97;;;;;;;1.24;100.00;100083.36;653173;217;24778;-73
2021/01/08 03:00:28;;;;;;;21.70;11.17;;;;;;;1.02;100.00;100087.17;657930;217;24782;-75
2021/01/08 03:02:56;;;;;;;22.40;11.10;;;;;;;1.13;100.00;100092.96;654812;216;25044;-74
2021/01/08 03:05:27;;;;;;;20.73;11.50;;;;;;;1.04;100.00;100082.78;651272;216;24752;-73
2021/01/08 03:07:52;;;;;;;22.80;11.47;;;;;;;1.13;100.00;100084.00;651525;217;24764;-75
2021/01/08 03:10:20;;;;;;;20.63;11.13;;;;;;;1.19;100.00;100083.17;638103;222;24807;-74
2021/01/08 03:12:51;;;;;;;20.20;12.53;;;;;;;1.30;100.00;100083.84;637359;221;32772;-74
2021/01/08 03:15:19;;;;;;;24.32;13.65;;;;;;;1.23;100.00;100080.43;648438;216;32895;-73
2021/01/08 03:17:47;;;;;;;22.13;13.50;;;;;;;1.34;100.00;100081.92;634437;221;34956;-72
2021/01/08 03:20:15;;;;;;;23.27;12.83;;;;;;;1.23;100.00;100086.84;653744;217;27935;-73
2021/01/08 03:22:43;;;;;;;21.00;11.30;;;;;;;1.14;100.00;100075.41;647049;221;24898;-74
2021/01/08 03:25:12;;;;;;;18.30;11.80;;;;;;;1.24;100.00;100082.08;643830;221;24852;-72
2021/01/08 03:27:39;;;;;;;23.57;14.60;;;;;;;1.30;100.00;100081.73;652588;216;32612;-73
2021/01/08 03:30:08;;;;;;;22.00;12.53;;;;;;;1.18;100.00;100082.81;646410;221;24815;-73
2021/01/08 03:32:36;;;;;;;21.57;11.63;;;;;;;1.07;100.00;100087.72;641117;221;24804;-72
2021/01/08 03:35:06;;;;;;;23.33;12.40;;;;;;;1.07;100.00;100083.06;639538;221;24812;-73
2021/01/08 03:37:34;;;;;;;22.43;11.47;;;;;;;1.11;100.00;100082.78;642845;221;28012;-72
2021/01/08 03:40:02;;;;;;;22.97;11.77;;;;;;;1.06;100.00;100086.08;653618;217;24811;-73
2021/01/08 03:42:29;;;;;;;20.90;11.50;;;;;;;1.01;100.00;100089.36;644329;221;29270;-73
2021/01/08 03:44:57;;;;;;;23.20;12.00;;;;;;;1.17;100.00;100083.73;657334;216;24912;-73
2021/01/08 03:47:25;;;;;;;24.27;14.23;;;;;;;1.57;100.00;100090.36;651761;217;32955;-72
2021/01/08 03:49:53;;;;;;;20.70;12.90;;;;;;;1.52;100.00;100080.83;657079;217;23667;-72
2021/01/08 03:52:21;;;;;;;20.83;12.20;;;;;;;1.67;100.00;100077.80;648958;221;24805;-73
2021/01/08 03:54:50;;;;;;;22.93;14.38;;;;;;;1.56;100.00;100082.77;633063;222;32751;-73
2021/01/08 03:57:18;;;;;;;21.40;12.27;;;;;;;1.34;100.00;100085.30;631424;221;24754;-73
2021/01/08 03:59:46;;;;;;;18.47;11.67;;;;;;;1.49;100.00;100084.39;645465;221;24809;-73
2021/01/08 04:02:14;;;;;;;19.83;11.30;;;;;;;1.39;100.00;100079.89;651211;216;24786;-72
2021/01/08 04:04:42;;;;;;;20.27;11.27;;;;;;;1.33;100.00;100077.70;651036;217;24783;-73
2021/01/08 04:07:10;;;;;;;22.77;13.20;;;;;;;1.39;100.00;100078.16;656937;217;24775;-73
2021/01/08 04:09:38;;;;;;;24.23;11.77;;;;;;;1.42;100.00;100075.90;657260;216;24763;-73
2021/01/08 04:12:06;;;;;;;19.07;10.90;;;;;;;1.28;100.00;100074.60;641979;221;24789;-72
2021/01/08 04:14:34;;;;;;;24.27;12.30;;;;;;;1.29;100.00;100069.84;658062;217;24753;-73
2021/01/08 04:17:02;;;;;;;19.50;11.53;;;;;;;1.27;100.00;100073.78;643193;222;24799;-73
2021/01/08 04:19:30;;;;;;;23.17;12.13;;;;;;;1.45;100.00;100072.69;656212;217;25073;-73
2021/01/08 04:21:58;;;;;;;21.87;14.13;;;;;;;1.42;100.00;100069.49;646655;217;32578;-73
2021/01/08 04:24:26;;;;;;;20.43;12.40;;;;;;;1.38;100.00;100064.98;639317;221;23687;-73
2021/01/08 04:26:54;;;;;;;18.80;11.70;;;;;;;1.39;100.00;100069.65;653078;217;24970;-73
2021/01/08 04:29:22;;;;;;;19.53;12.10;;;;;;;1.41;100.00;100065.28;659256;216;24791;-72
2021/01/08 04:31:50;;;;;;;23.13;12.20;;;;;;;1.43;100.00;100063.45;651452;218;24756;-74
2021/01/08 04:34:18;;;;;;;21.05;13.32;;;;;;;1.47;100.00;100064.91;647929;217;32543;-73
2021/01/08 04:36:46;;;;;;;22.57;12.87;;;;;;;1.61;100.00;100068.75;642314;221;23678;-73
2021/01/08 04:39:14;;;;;;;24.00;15.03;;;;;;;1.76;100.00;100060.14;652114;216;32669;-73
2021/01/08 04:41:41;;;;;;;23.80;15.10;;;;;;;1.81;100.00;100057.74;638984;220;32813;-73
2021/01/08 04:44:09;;;;;;;25.33;13.20;;;;;;;1.54;100.00;100066.17;655023;217;23675;-73
2021/01/08 04:46:37;;;;;;;20.30;11.13;;;;;;;1.40;100.00;100070.02;647074;221;24805;-73
2021/01/08 04:49:05;;;;;;;19.13;11.77;;;;;;;1.29;100.00;100062.98;655773;216;24759;-73
2021/01/08 04:51:33;;;;;;;21.67;12.83;;;;;;;1.18;100.00;100066.16;646135;221;24809;-74
2021/01/08 04:54:02;;;;;;;26.90;11.73;;;;;;;1.21;100.00;100073.30;642253;221;24800;-74
2021/01/08 04:56:30;;;;;;;24.20;11.77;;;;;;;1.28;100.00;100070.77;658953;217;24777;-74
2021/01/08 05:00:51;;;;;;;19.53;12.23;;;;;;;1.23;100.00;100070.19;651787;217;29819;-75
2021/01/08 05:03:19;;;;;;;23.13;12.60;;;;;;;1.21;100.00;100065.61;639008;224;24821;-75
2021/01/08 05:05:46;;;;;;;22.70;12.00;;;;;;;1.29;100.00;100072.41;636935;223;24788;-75
2021/01/08 05:08:14;;;;;;;22.13;14.85;;;;;;;1.30;100.00;100072.77;631190;223;32769;-74
2021/01/08 05:10:42;;;;;;;22.07;13.13;;;;;;;1.33;100.00;100077.70;639179;223;23662;-73
2021/01/08 05:13:10;;;;;;;22.10;12.80;;;;;;;1.32;100.00;100079.45;645987;221;24783;-73
2021/01/08 05:15:38;;;;;;;23.80;12.03;;;;;;;1.29;100.00;100072.41;646423;220;24779;-72
2021/01/08 05:18:06;;;;;;;19.53;10.93;;;;;;;1.41;100.00;100076.36;644625;221;24859;-72
2021/01/08 05:20:34;;;;;;;20.30;12.07;;;;;;;1.40;100.00;100075.14;641090;222;26947;-72
2021/01/08 05:23:02;;;;;;;20.77;12.37;;;;;;;1.27;100.00;100072.92;641274;221;24949;-72
2021/01/08 05:25:30;;;;;;;23.25;14.53;;;;;;;1.33;100.00;100073.41;634579;222;32984;-72
2021/01/08 05:27:58;;;;;;;20.80;13.95;;;;;;;1.43;100.00;100078.36;630706;222;32751;-72
2021/01/08 05:30:27;;;;;;;24.37;14.97;;;;;;;1.42;100.00;100069.49;659895;217;23669;-73
2021/01/08 05:32:57;;;;;;;31.97;18.30;;;;;;;1.41;100.00;100073.80;650805;217;24742;-72
2021/01/08 05:35:25;;;;;;;42.37;22.50;;;;;;;1.47;100.00;100068.75;640034;222;24782;-72
2021/01/08 05:37:53;;;;;;;43.57;24.50;;;;;;;1.34;100.00;100080.17;641661;222;26047;-73
2021/01/08 05:40:25;;;;;;;44.30;26.35;;;;;;;1.54;100.00;100075.14;637576;222;32986;-73
2021/01/08 05:42:55;;;;;;;32.80;20.30;;;;;;;1.47;100.00;100076.44;651534;219;23650;-73
2021/01/08 05:45:23;;;;;;;26.17;21.13;;;;;;;1.64;100.00;100076.25;655966;218;25128;-72
2021/01/08 05:47:52;;;;;;;33.33;24.10;;;;;;;1.51;100.00;100077.90;653265;217;24768;-72
2021/01/08 05:50:20;;;;;;;102.30;70.87;;;;;;;1.52;100.00;100082.11;657563;214;24749;-73
2021/01/08 05:52:50;;;;;;;77.23;47.97;;;;;;;1.57;100.00;100077.55;642210;221;24801;-72
2021/01/08 05:55:18;;;;;;;98.60;61.97;;;;;;;1.52;100.00;100076.16;629282;225;24826;-73
2021/01/08 05:57:46;;;;;;;45.00;30.90;;;;;;;1.50;100.00;100083.94;639524;222;24776;-72
2021/01/08 06:00:15;;;;;;;51.37;38.63;;;;;;;1.51;100.00;100077.90;644182;222;24790;-73
2021/01/08 06:02:43;;;;;;;34.20;29.13;;;;;;;1.31;100.00;100073.14;640316;222;24785;-72
2021/01/08 06:05:12;;;;;;;30.23;19.80;;;;;;;1.53;100.00;100081.64;645260;222;24780;-73
2021/01/08 06:07:39;;;;;;;19.60;12.27;;;;;;;1.64;100.00;100084.40;649019;219;24740;-72
2021/01/08 06:10:08;;;;;;;24.73;13.27;;;;;;;1.50;100.00;100091.63;638974;222;26008;-73
2021/01/08 06:12:38;;;;;;;31.57;19.07;;;;;;;1.56;100.00;100088.72;657588;216;24733;-73
2021/01/08 06:15:08;;;;;;;57.37;42.13;;;;;;;1.69;100.00;100089.64;639156;221;25126;-74
2021/01/08 06:17:37;;;;;;;27.57;19.90;;;;;;;1.84;100.00;100086.61;641704;220;24795;-73
2021/01/08 06:20:06;;;;;;;22.20;14.27;;;;;;;1.52;100.00;100091.07;641246;221;25072;-74
2021/01/08 06:22:37;;;;;;;19.87;12.37;;;;;;;1.60;100.00;100090.63;644215;221;26930;-74
2021/01/08 06:25:07;;;;;;;21.27;14.97;;;;;;;1.74;100.00;100087.61;639021;221;24790;-74
2021/01/08 06:27:35;;;;;;;20.12;13.98;;;;;;;2.09;100.00;100089.76;635152;221;32720;-74
2021/01/08 06:30:03;;;;;;;22.57;12.90;;;;;;;1.98;100.00;100084.48;652314;217;23634;-75
2021/01/08 06:32:31;;;;;;;19.40;10.97;;;;;;;1.93;100.00;100090.34;650601;218;24782;-74
2021/01/08 06:35:02;;;;;;;16.70;10.13;;;;;;;1.65;100.00;100097.58;638400;221;24791;-74
2021/01/08 06:37:32;;;;;;;19.50;10.63;;;;;;;1.45;100.00;100103.44;643418;221;24811;-72
2021/01/08 06:40:00;;;;;;;19.37;10.50;;;;;;;1.53;100.00;100107.27;643786;221;24814;-75
2021/01/08 06:42:27;;;;;;;19.90;10.80;;;;;;;1.59;100.00;100108.20;641668;220;24794;-75
2021/01/08 06:44:56;;;;;;;22.10;11.40;;;;;;;1.69;100.00;100104.16;649812;217;24755;-75
2021/01/08 06:47:24;;;;;;;17.30;9.83;;;;;;;1.64;100.00;100103.16;654909;217;24752;-75
2021/01/08 06:49:52;;;;;;;19.43;10.87;;;;;;;1.62;100.00;100103.72;648782;218;24741;-75
2021/01/08 06:52:19;;;;;;;17.60;9.87;;;;;;;1.77;100.00;100107.11;652183;218;24779;-75
2021/01/08 06:54:47;;;;;;;16.57;10.20;;;;;;;1.74;100.00;100097.05;643226;222;24797;-74
2021/01/08 06:57:18;;;;;;;17.33;9.87;;;;;;;1.62;100.00;100100.33;648871;217;24746;-74
2021/01/08 06:59:47;;;;;;;16.30;10.50;;;;;;;1.54;100.00;100099.48;638117;222;24783;-74
2021/01/08 07:02:15;;;;;;;17.33;9.77;;;;;;;1.49;100.00;100107.91;641753;222;24828;-74
2021/01/08 07:04:43;;;;;;;15.50;10.23;;;;;;;1.39;100.00;100106.34;641187;220;24783;-75
2021/01/08 07:07:13;;;;;;;16.17;10.53;;;;;;;1.23;100.00;100103.02;645993;222;24774;-73
2021/01/08 07:09:41;;;;;;;15.60;10.33;;;;;;;1.23;100.00;100115.83;648718;221;25795;-74
2021/01/08 07:12:09;;;;;;;14.33;9.63;;;;;;;1.17;100.00;100118.30;643435;221;24781;-74
2021/01/08 07:14:37;;;;;;;20.23;12.82;;;;;;;1.26;100.00;100122.51;638201;222;32574;-73
2021/01/08 07:17:05;;;;;;;18.32;11.90;;;;;;;1.25;100.00;100123.42;644140;218;32577;-74
2021/01/08 07:19:33;;;;;;;18.73;11.00;;;;;;;1.21;100.00;100126.62;642164;222;26936;-73
2021/01/08 07:22:01;;;;;;;16.33;11.10;;;;;;;1.20;100.00;100131.38;642438;220;24779;-74
2021/01/08 07:24:29;;;;;;;15.37;9.40;;;;;;;1.23;100.00;100134.22;646810;217;24752;-74
2021/01/08 07:27:10;;;;;;;18.87;11.22;;;;;;;1.25;100.00;100130.65;644145;218;43285;-74
2021/01/08 07:29:38;;;;;;;18.30;10.43;;;;;;;1.20;100.00;100136.50;653314;218;23644;-74
2021/01/08 07:32:06;;;;;;;16.15;10.45;;;;;;;1.27;100.00;100140.80;635811;221;32745;-74
2021/01/08 07:34:35;;;;;;;15.17;10.30;;;;;;;1.26;100.00;100142.55;638551;221;23654;-74
2021/01/08 07:37:03;;;;;;;13.38;9.68;;;;;;;1.39;100.00;100142.66;637540;221;33010;-74
2021/01/08 07:39:37;;;;;;;12.70;8.70;;;;;;;1.37;100.00;100149.62;652186;219;23624;-75
2021/01/08 07:42:36;;;;;;;14.00;9.68;;;;;;;1.47;100.00;100154.59;639163;221;33519;-74
2021/01/08 07:45:05;;;;;;;14.17;9.13;;;;;;;1.41;100.00;100153.67;652221;218;24129;-74
2021/01/08 07:47:33;;;;;;;13.00;9.00;;;;;;;1.43;100.00;100158.25;656925;217;25053;-75
2021/01/08 07:50:08;;;;;;;13.32;9.95;;;;;;;1.50;100.00;100156.97;640787;220;32814;-75
2021/01/08 07:52:37;;;;;;;12.13;8.33;;;;;;;1.45;100.00;100153.86;638140;221;23651;-75
2021/01/08 07:55:05;;;;;;;10.97;7.97;;;;;;;1.44;100.00;100165.02;635873;222;24776;-74
2021/01/08 07:58:02;;;;;;;12.70;7.23;;;;;;;1.46;100.00;100167.03;641795;221;24884;-73
2021/01/08 08:00:31;;;;;;;10.60;6.80;;;;;;;1.51;100.00;100165.02;646049;222;24779;-74
2021/01/08 08:02:58;;;;;;;10.13;7.00;;;;;;;1.49;100.00;100164.29;642429;221;24781;-75
2021/01/08 08:05:26;;;;;;;10.93;7.62;;;;;;;1.58;100.00;100169.34;636263;222;32686;-74
2021/01/08 08:07:56;;;;;;;8.93;6.67;;;;;;;1.61;100.00;100169.98;644849;221;23652;-74
2021/01/08 08:10:24;;;;;;;9.43;6.90;;;;;;;1.62;100.00;100169.07;639366;221;25045;-75
2021/01/08 08:12:52;;;;;;;14.00;7.60;;;;;;;1.65;99.89;100178.31;648727;221;24751;-74
2021/01/08 08:15:20;;;;;;;8.10;6.50;;;;;;;1.70;98.99;100172.02;651788;217;24742;-75
2021/01/08 08:17:48;;;;;;;7.87;6.27;;;;;;;1.71;98.25;100173.67;658540;217;26901;-74
2021/01/08 08:20:19;;;;;;;8.30;7.00;;;;;;;1.71;97.73;100176.23;650226;217;25014;-74
2021/01/08 08:22:47;;;;;;;9.40;6.90;;;;;;;1.82;97.75;100173.02;648477;217;33547;-75
2021/01/08 08:25:22;;;;;;;12.10;7.30;;;;;;;1.79;97.04;100170.64;656521;216;24729;-75
2021/01/08 08:27:53;;;;;;;8.20;5.87;;;;;;;1.83;96.53;100166.15;658433;217;24753;-74
2021/01/08 08:30:21;;;;;;;7.95;6.42;;;;;;;1.89;95.47;100169.19;644769;217;32500;-75
2021/01/08 08:32:49;;;;;;;6.87;5.70;;;;;;;1.90;94.17;100167.45;652610;217;23655;-75
2021/01/08 08:35:18;;;;;;;7.42;5.90;;;;;;;1.92;94.20;100162.59;649770;215;32569;-75
2021/01/08 08:37:48;;;;;;;5.10;4.60;;;;;;;1.96;93.95;100160.66;652453;217;23617;-75
2021/01/08 08:40:16;;;;;;;8.27;5.63;;;;;;;1.95;93.43;100162.86;656177;217;24708;-74
2021/01/08 08:42:46;;;;;;;5.80;4.30;;;;;;;1.98;93.00;100174.24;641079;221;24781;-74
2021/01/08 08:45:20;;;;;;;5.67;4.70;;;;;;;1.95;93.10;100189.33;652374;217;24734;-74
2021/01/08 08:47:48;;;;;;;5.47;4.93;;;;;;;1.97;92.85;100178.98;641167;221;24755;-74
2021/01/08 08:50:16;;;;;;;8.80;5.73;;;;;;;1.93;92.79;100176.23;647445;220;24810;-73
2021/01/08 08:52:45;;;;;;;9.10;4.83;;;;;;;1.94;92.98;100187.68;643859;221;27982;-74
2021/01/08 08:55:26;;;;;;;6.10;4.70;;;;;;;1.96;92.89;100193.54;657518;218;24759;-74
2021/01/08 08:58:02;;;;;;;5.30;4.20;;;;;;;1.88;92.80;100192.36;649311;219;24731;-74
2021/01/08 09:00:30;;;;;;;9.50;5.30;;;;;;;1.94;93.24;100206.09;654997;217;24711;-74
2021/01/08 09:02:58;;;;;;;6.72;5.70;;;;;;;1.99;92.89;100206.20;645534;218;32622;-74
2021/01/08 09:05:31;;;;;;;8.10;5.50;;;;;;;1.92;93.14;100207.47;651936;218;23636;-74
2021/01/08 09:08:04;;;;;;;6.50;5.53;;;;;;;1.90;93.83;100216.99;651186;217;24739;-73
2021/01/08 09:10:32;;;;;;;7.00;4.43;;;;;;;1.81;93.29;100192.34;650457;218;24753;-74
2021/01/08 09:13:01;;;;;;;7.00;5.70;;;;;;;1.90;94.20;100209.30;643892;222;24784;-74
2021/01/08 09:15:28;;;;;;;8.63;5.73;;;;;;;1.86;93.75;100210.86;640527;221;28001;-74
2021/01/08 09:18:02;;;;;;;6.40;5.30;;;;;;;1.83;93.45;100216.14;637965;222;24777;-74
2021/01/08 09:20:30;;;;;;;8.63;5.03;;;;;;;1.78;93.47;100213.41;643928;220;24795;-73
2021/01/08 09:22:59;;;;;;;8.40;5.80;;;;;;;1.87;94.12;100227.89;640519;222;24781;-74
2021/01/08 09:25:27;;;;;;;7.33;6.03;;;;;;;1.76;93.18;100217.80;642783;222;24774;-74
2021/01/08 09:27:55;;;;;;;6.57;5.43;;;;;;;1.74;94.08;100222.20;645458;221;24802;-74
2021/01/08 09:30:25;;;;;;;9.33;7.50;;;;;;;1.74;94.11;100228.60;646302;218;24804;-73
2021/01/08 09:32:53;;;;;;;8.93;6.33;;;;;;;1.71;93.53;100226.68;640636;218;32514;-74
2021/01/08 09:35:21;;;;;;;8.80;6.00;;;;;;;1.72;93.46;100225.30;636272;221;23653;-73
2021/01/08 09:37:49;;;;;;;10.07;6.20;;;;;;;1.66;93.33;100233.79;651248;217;24756;-74
2021/01/08 09:40:18;;;;;;;7.30;5.87;;;;;;;1.59;93.31;100230.77;655355;218;24726;-74
2021/01/08 09:42:47;;;;;;;7.17;5.40;;;;;;;1.62;93.77;100234.43;643667;222;24769;-73
2021/01/08 09:45:19;;;;;;;6.53;4.80;;;;;;;1.56;93.85;100238.64;649983;218;24729;-73
2021/01/08 09:47:47;;;;;;;7.72;6.10;;;;;;;1.48;95.00;100256.17;635186;218;32663;-74
2021/01/08 09:50:30;;;;;;;9.17;5.90;;;;;;;1.54;95.81;100258.83;640070;221;23660;-74
2021/01/08 09:52:58;;;;;;;7.93;6.30;;;;;;;1.49;95.96;100247.57;647785;218;24778;-74
2021/01/08 09:55:27;;;;;;;7.80;6.67;;;;;;;1.45;95.00;100261.47;643926;218;32495;-74
2021/01/08 09:57:56;;;;;;;8.80;6.27;;;;;;;1.47;96.20;100258.36;652097;218;23666;-74
2021/01/08 10:00:28;;;;;;;8.00;6.70;;;;;;;1.55;95.74;100239.55;643472;218;32534;-72
2021/01/08 10:02:57;;;;;;;9.30;6.90;;;;;;;1.58;95.57;100249.63;645960;218;32491;-73
2021/01/08 10:05:26;;;;;;;9.07;6.37;;;;;;;1.57;95.72;100245.87;640099;221;26844;-73
2021/01/08 10:07:54;;;;;;;11.30;6.80;;;;;;;1.53;95.73;100250.77;641471;221;29060;-74
2021/01/08 10:10:37;;;;;;;8.53;6.13;;;;;;;1.54;96.60;100255.81;647942;221;24790;-74
2021/01/08 10:13:07;;;;;;;7.20;5.77;;;;;;;1.48;96.00;100257.00;640960;221;25017;-74
2021/01/08 10:15:36;;;;;;;9.47;7.30;;;;;;;1.53;96.50;100261.84;649574;217;35037;-74
2021/01/08 10:18:08;;;;;;;9.20;7.17;;;;;;;1.52;96.14;100257.64;637740;221;32663;-73
2021/01/08 10:20:42;;;;;;;10.63;6.83;;;;;;;1.47;96.78;100261.75;639543;221;23659;-74
2021/01/08 10:23:11;;;;;;;6.93;6.10;;;;;;;1.39;96.33;100264.36;640274;221;24778;-73
2021/01/08 10:25:39;;;;;;;10.40;6.70;;;;;;;1.45;96.82;100262.75;632398;222;32728;-77
2021/01/08 10:28:13;;;;;;;10.03;7.53;;;;;;;1.52;97.30;100266.61;651533;219;23637;-74
2021/01/08 10:30:41;;;;;;;9.83;6.90;;;;;;;1.59;97.55;100266.64;638087;221;32732;-75
2021/01/08 10:33:09;;;;;;;8.27;6.83;;;;;;;1.40;97.29;100262.98;652773;217;23680;-73
2021/01/08 10:35:38;;;;;;;9.05;6.85;;;;;;;1.48;97.22;100263.86;647222;217;32553;-73
2021/01/08 10:38:06;;;;;;;10.00;6.17;;;;;;;1.41;97.04;100260.83;657311;217;23647;-76
2021/01/08 10:40:34;;;;;;;7.83;5.40;;;;;;;1.43;96.19;100251.77;653022;217;24733;-75
2021/01/08 10:43:02;;;;;;;7.83;5.33;;;;;;;1.55;96.73;100251.51;656411;217;24738;-76
2021/01/08 10:45:30;;;;;;;11.00;6.10;;;;;;;1.60;97.11;100250.36;654777;217;24763;-76
2021/01/08 10:47:57;;;;;;;9.10;6.83;;;;;;;1.63;96.42;100251.45;653709;217;24743;-73
2021/01/08 10:50:25;;;;;;;11.47;7.00;;;;;;;1.73;96.67;100253.87;659229;217;24731;-74
2021/01/08 10:52:53;;;;;;;11.07;5.73;;;;;;;1.70;96.20;100246.82;648550;217;24759;-73
2021/01/08 10:55:21;;;;;;;9.57;6.10;;;;;;;1.76;96.07;100242.61;652761;217;29013;-74
2021/01/08 10:57:49;;;;;;;11.43;6.97;;;;;;;1.71;95.96;100248.02;658536;216;29245;-74
2021/01/08 11:00:21;;;;;;;8.00;5.50;;;;;;;1.62;96.70;100252.38;657778;216;24772;-74
2021/01/08 11:02:47;;;;;;;11.63;7.00;;;;;;;1.68;97.29;100252.46;656058;217;24828;-75
2021/01/08 11:05:15;;;;;;;9.73;7.33;;;;;;;1.78;97.18;100250.58;648520;217;32550;-74
2021/01/08 11:07:43;;;;;;;9.20;6.70;;;;;;;1.85;96.84;100251.06;654046;217;23636;-74
2021/01/08 11:10:12;;;;;;;15.83;6.60;;;;;;;1.69;97.54;100254.97;657938;217;24825;-74
2021/01/08 11:12:40;;;;;;;7.97;6.47;;;;;;;1.61;97.14;100244.31;660107;217;24767;-74
2021/01/08 11:15:08;;;;;;;9.73;6.20;;;;;;;1.63;97.36;100247.61;654012;217;24743;-74
2021/01/08 11:17:36;;;;;;;7.80;5.83;;;;;;;1.62;96.65;100242.12;656807;217;27996;-74
2021/01/08 11:20:04;;;;;;;11.00;7.20;;;;;;;1.72;97.69;100238.58;653417;217;32477;-74
2021/01/08 11:22:32;;;;;;;10.03;7.57;;;;;;;1.91;96.91;100234.48;656464;217;23616;-74
2021/01/08 11:25:00;;;;;;;9.43;6.83;;;;;;;2.02;96.56;100238.53;652235;217;24748;-74
2021/01/08 11:27:28;;;;;;;8.43;5.83;;;;;;;2.03;96.26;100232.03;650764;217;24736;-72